sensor_id;sensor_type;location;lat;lon;timestamp;temperature;humidity
23803;DHT22;12082;51.786;6.018;2022-07-22T00:00:13;15.30;99.90
23803;DHT22;12082;51.786;6.018;2022-07-22T00:02:39;15.40;99.90
23803;DHT22;12082;51.786;6.018;2022-07-22T00:05:06;15.40;99.90
23803;DHT22;12082;51.786;6.018;2022-07-22T00:07:32;15.40;99.90
23803;DHT22;12082;51.786;6.018;2022-07-22T00:09:57;15.30;99.90
23803;DHT22;12082;51.786;6.018;2022-07-22T00:12:23;15.40;99.90
23803;DHT22;12082;51.786;6.018;2022-07-22T00:14:49;15.30;99.90
23803;DHT22;12082;51.786;6.018;2022-07-22T00:17:14;15.40;99.90
23803;DHT22;12082;51.786;6.018;2022-07-22T00:19:40;15.40;99.90
23803;DHT22;12082;51.786;6.018;2022-07-22T00:22:05;15.40;99.90
23803;DHT22;12082;51.786;6.018;2022-07-22T00:24:31;16.00;99.90
23803;DHT22;12082;51.786;6.018;2022-07-22T00:26:57;15.40;99.90
23803;DHT22;12082;51.786;6.018;2022-07-22T00:29:22;15.40;99.90
23803;DHT22;12082;51.786;6.018;2022-07-22T00:31:48;15.40;99.90
23803;DHT22;12082;51.786;6.018;2022-07-22T00:34:13;15.30;99.90
23803;DHT22;12082;51.786;6.018;2022-07-22T00:36:39;15.40;99.90
23803;DHT22;12082;51.786;6.018;2022-07-22T00:39:05;15.40;99.90
23803;DHT22;12082;51.786;6.018;2022-07-22T00:41:30;15.40;99.90
23803;DHT22;12082;51.786;6.018;2022-07-22T00:44:05;15.40;99.90
23803;DHT22;12082;51.786;6.018;2022-07-22T00:46:33;15.40;99.90
23803;DHT22;12082;51.786;6.018;2022-07-22T00:48:59;15.40;99.90
23803;DHT22;12082;51.786;6.018;2022-07-22T00:51:26;15.40;99.90
23803;DHT22;12082;51.786;6.018;2022-07-22T00:53:54;15.40;99.90
23803;DHT22;12082;51.786;6.018;2022-07-22T00:56:20;15.40;99.90
23803;DHT22;12082;51.786;6.018;2022-07-22T00:58:48;15.50;99.90
23803;DHT22;12082;51.786;6.018;2022-07-22T01:01:15;15.40;99.90
23803;DHT22;12082;51.786;6.018;2022-07-22T01:03:40;15.50;99.90
23803;DHT22;12082;51.786;6.018;2022-07-22T01:06:06;15.50;99.90
23803;DHT22;12082;51.786;6.018;2022-07-22T01:08:33;15.40;99.90
23803;DHT22;12082;51.786;6.018;2022-07-22T01:11:17;15.50;99.90
23803;DHT22;12082;51.786;6.018;2022-07-22T01:13:44;15.50;99.90
23803;DHT22;12082;51.786;6.018;2022-07-22T01:16:11;15.40;99.90
23803;DHT22;12082;51.786;6.018;2022-07-22T01:18:38;15.40;99.90
23803;DHT22;12082;51.786;6.018;2022-07-22T01:21:04;15.40;99.90
23803;DHT22;12082;51.786;6.018;2022-07-22T01:23:31;15.50;99.90
23803;DHT22;12082;51.786;6.018;2022-07-22T01:25:56;15.50;99.90
23803;DHT22;12082;51.786;6.018;2022-07-22T01:28:22;15.50;99.90
23803;DHT22;12082;51.786;6.018;2022-07-22T01:30:48;15.40;99.90
23803;DHT22;12082;51.786;6.018;2022-07-22T01:33:16;15.40;99.90
23803;DHT22;12082;51.786;6.018;2022-07-22T01:35:42;15.40;99.90
23803;DHT22;12082;51.786;6.018;2022-07-22T01:38:07;15.30;99.90
23803;DHT22;12082;51.786;6.018;2022-07-22T01:40:33;15.40;99.90
23803;DHT22;12082;51.786;6.018;2022-07-22T01:42:59;15.30;99.90
23803;DHT22;12082;51.786;6.018;2022-07-22T01:45:25;15.30;99.90
23803;DHT22;12082;51.786;6.018;2022-07-22T01:47:50;15.30;99.90
23803;DHT22;12082;51.786;6.018;2022-07-22T01:50:16;15.30;99.90
23803;DHT22;12082;51.786;6.018;2022-07-22T01:52:41;15.20;99.90
23803;DHT22;12082;51.786;6.018;2022-07-22T01:55:08;15.30;99.90
23803;DHT22;12082;51.786;6.018;2022-07-22T01:57:35;15.20;99.90
23803;DHT22;12082;51.786;6.018;2022-07-22T02:00:01;15.30;99.90
23803;DHT22;12082;51.786;6.018;2022-07-22T02:02:27;15.20;99.90
23803;DHT22;12082;51.786;6.018;2022-07-22T02:04:52;15.20;99.90
23803;DHT22;12082;51.786;6.018;2022-07-22T02:07:18;15.30;99.90
23803;DHT22;12082;51.786;6.018;2022-07-22T02:09:43;15.30;99.90
23803;DHT22;12082;51.786;6.018;2022-07-22T02:12:09;15.20;99.90
23803;DHT22;12082;51.786;6.018;2022-07-22T02:14:35;15.20;99.90
23803;DHT22;12082;51.786;6.018;2022-07-22T02:17:00;15.20;99.90
23803;DHT22;12082;51.786;6.018;2022-07-22T02:19:26;15.20;99.90
23803;DHT22;12082;51.786;6.018;2022-07-22T02:21:51;15.20;99.90
23803;DHT22;12082;51.786;6.018;2022-07-22T02:24:17;15.20;99.90
23803;DHT22;12082;51.786;6.018;2022-07-22T02:26:42;15.20;99.90
23803;DHT22;12082;51.786;6.018;2022-07-22T02:29:08;15.20;99.90
23803;DHT22;12082;51.786;6.018;2022-07-22T02:31:33;15.20;99.90
23803;DHT22;12082;51.786;6.018;2022-07-22T02:33:59;15.20;99.90
23803;DHT22;12082;51.786;6.018;2022-07-22T02:36:25;15.20;99.90
23803;DHT22;12082;51.786;6.018;2022-07-22T02:38:50;15.20;99.90
23803;DHT22;12082;51.786;6.018;2022-07-22T02:41:16;15.20;99.90
23803;DHT22;12082;51.786;6.018;2022-07-22T02:43:41;15.20;99.90
23803;DHT22;12082;51.786;6.018;2022-07-22T02:46:08;15.20;99.90
23803;DHT22;12082;51.786;6.018;2022-07-22T02:48:33;15.20;99.90
23803;DHT22;12082;51.786;6.018;2022-07-22T02:50:59;15.30;99.90
23803;DHT22;12082;51.786;6.018;2022-07-22T02:53:24;15.30;99.90
23803;DHT22;12082;51.786;6.018;2022-07-22T02:55:50;15.20;99.90
23803;DHT22;12082;51.786;6.018;2022-07-22T02:58:16;15.30;99.90
23803;DHT22;12082;51.786;6.018;2022-07-22T03:00:41;15.20;99.90
23803;DHT22;12082;51.786;6.018;2022-07-22T03:03:07;15.20;99.90
23803;DHT22;12082;51.786;6.018;2022-07-22T03:05:33;15.20;99.90
23803;DHT22;12082;51.786;6.018;2022-07-22T03:07:58;15.20;99.90
23803;DHT22;12082;51.786;6.018;2022-07-22T03:10:24;15.30;99.90
23803;DHT22;12082;51.786;6.018;2022-07-22T03:12:50;15.30;99.90
23803;DHT22;12082;51.786;6.018;2022-07-22T03:15:15;15.20;99.90
23803;DHT22;12082;51.786;6.018;2022-07-22T03:17:41;15.20;99.90
23803;DHT22;12082;51.786;6.018;2022-07-22T03:20:08;15.30;99.90
23803;DHT22;12082;51.786;6.018;2022-07-22T03:22:34;15.30;99.90
23803;DHT22;12082;51.786;6.018;2022-07-22T03:25:01;15.20;99.90
23803;DHT22;12082;51.786;6.018;2022-07-22T03:27:26;15.20;99.90
23803;DHT22;12082;51.786;6.018;2022-07-22T03:29:52;15.20;99.90
23803;DHT22;12082;51.786;6.018;2022-07-22T03:32:18;15.20;99.90
23803;DHT22;12082;51.786;6.018;2022-07-22T03:34:44;15.20;99.90
23803;DHT22;12082;51.786;6.018;2022-07-22T03:37:09;15.20;99.90
23803;DHT22;12082;51.786;6.018;2022-07-22T03:39:35;15.20;99.90
23803;DHT22;12082;51.786;6.018;2022-07-22T03:42:02;15.20;99.90
23803;DHT22;12082;51.786;6.018;2022-07-22T03:44:27;15.20;99.90
23803;DHT22;12082;51.786;6.018;2022-07-22T03:46:53;15.20;99.90
23803;DHT22;12082;51.786;6.018;2022-07-22T03:49:19;15.20;99.90
23803;DHT22;12082;51.786;6.018;2022-07-22T03:51:44;15.20;99.90
23803;DHT22;12082;51.786;6.018;2022-07-22T03:54:10;15.20;99.90
23803;DHT22;12082;51.786;6.018;2022-07-22T03:56:36;15.20;99.90
23803;DHT22;12082;51.786;6.018;2022-07-22T03:59:01;15.70;99.90
23803;DHT22;12082;51.786;6.018;2022-07-22T04:01:27;15.20;99.90
23803;DHT22;12082;51.786;6.018;2022-07-22T04:03:52;15.30;99.90
23803;DHT22;12082;51.786;6.018;2022-07-22T04:06:18;15.30;99.90
23803;DHT22;12082;51.786;6.018;2022-07-22T04:08:44;15.20;99.90
23803;DHT22;12082;51.786;6.018;2022-07-22T04:11:09;15.20;99.90
23803;DHT22;12082;51.786;6.018;2022-07-22T04:13:35;15.20;99.90
23803;DHT22;12082;51.786;6.018;2022-07-22T04:16:01;15.20;99.90
23803;DHT22;12082;51.786;6.018;2022-07-22T04:18:26;15.20;99.90
23803;DHT22;12082;51.786;6.018;2022-07-22T04:20:52;15.20;99.90
23803;DHT22;12082;51.786;6.018;2022-07-22T04:23:18;15.30;99.90
23803;DHT22;12082;51.786;6.018;2022-07-22T04:25:43;15.30;99.90
23803;DHT22;12082;51.786;6.018;2022-07-22T04:28:10;15.30;99.90
23803;DHT22;12082;51.786;6.018;2022-07-22T04:30:35;15.30;99.90
23803;DHT22;12082;51.786;6.018;2022-07-22T04:33:01;15.40;99.90
23803;DHT22;12082;51.786;6.018;2022-07-22T04:35:27;15.40;99.90
23803;DHT22;12082;51.786;6.018;2022-07-22T04:37:52;15.50;99.90
23803;DHT22;12082;51.786;6.018;2022-07-22T04:40:18;15.50;99.90
23803;DHT22;12082;51.786;6.018;2022-07-22T04:42:44;15.50;99.90
23803;DHT22;12082;51.786;6.018;2022-07-22T04:45:11;15.60;99.90
23803;DHT22;12082;51.786;6.018;2022-07-22T04:47:37;15.60;99.90
23803;DHT22;12082;51.786;6.018;2022-07-22T04:50:03;15.60;99.90
23803;DHT22;12082;51.786;6.018;2022-07-22T04:52:28;15.60;99.90
23803;DHT22;12082;51.786;6.018;2022-07-22T04:54:54;15.70;99.90
23803;DHT22;12082;51.786;6.018;2022-07-22T04:57:20;15.70;99.90
23803;DHT22;12082;51.786;6.018;2022-07-22T04:59:45;15.70;99.90
23803;DHT22;12082;51.786;6.018;2022-07-22T05:02:11;15.80;99.90
23803;DHT22;12082;51.786;6.018;2022-07-22T05:04:36;15.90;99.90
23803;DHT22;12082;51.786;6.018;2022-07-22T05:07:02;15.90;99.90
23803;DHT22;12082;51.786;6.018;2022-07-22T05:09:28;15.90;99.90
23803;DHT22;12082;51.786;6.018;2022-07-22T05:11:54;15.90;99.90
23803;DHT22;12082;51.786;6.018;2022-07-22T05:14:19;15.90;99.90
23803;DHT22;12082;51.786;6.018;2022-07-22T05:16:45;16.10;99.90
23803;DHT22;12082;51.786;6.018;2022-07-22T05:19:11;15.90;99.90
23803;DHT22;12082;51.786;6.018;2022-07-22T05:21:36;16.00;99.90
23803;DHT22;12082;51.786;6.018;2022-07-22T05:24:02;16.00;99.90
23803;DHT22;12082;51.786;6.018;2022-07-22T05:26:29;16.00;99.90
23803;DHT22;12082;51.786;6.018;2022-07-22T05:28:56;16.10;99.90
23803;DHT22;12082;51.786;6.018;2022-07-22T05:31:22;16.10;99.90
23803;DHT22;12082;51.786;6.018;2022-07-22T05:33:47;16.20;99.90
23803;DHT22;12082;51.786;6.018;2022-07-22T05:36:13;16.10;99.90
23803;DHT22;12082;51.786;6.018;2022-07-22T05:38:39;16.20;99.90
23803;DHT22;12082;51.786;6.018;2022-07-22T05:41:05;16.20;99.90
23803;DHT22;12082;51.786;6.018;2022-07-22T05:43:30;16.20;99.90
23803;DHT22;12082;51.786;6.018;2022-07-22T05:45:56;16.40;99.90
23803;DHT22;12082;51.786;6.018;2022-07-22T05:48:21;16.30;99.90
23803;DHT22;12082;51.786;6.018;2022-07-22T05:50:47;16.30;99.90
23803;DHT22;12082;51.786;6.018;2022-07-22T05:53:13;16.40;99.90
23803;DHT22;12082;51.786;6.018;2022-07-22T05:55:38;16.40;99.90
23803;DHT22;12082;51.786;6.018;2022-07-22T05:58:04;16.50;99.90
23803;DHT22;12082;51.786;6.018;2022-07-22T06:00:30;16.50;99.90
23803;DHT22;12082;51.786;6.018;2022-07-22T06:02:55;16.50;99.90
23803;DHT22;12082;51.786;6.018;2022-07-22T06:05:21;16.60;99.90
23803;DHT22;12082;51.786;6.018;2022-07-22T06:07:47;16.60;99.90
23803;DHT22;12082;51.786;6.018;2022-07-22T06:10:13;16.50;99.90
23803;DHT22;12082;51.786;6.018;2022-07-22T06:12:41;16.60;99.90
23803;DHT22;12082;51.786;6.018;2022-07-22T06:15:07;16.60;99.90
23803;DHT22;12082;51.786;6.018;2022-07-22T06:17:33;16.60;99.90
23803;DHT22;12082;51.786;6.018;2022-07-22T06:19:58;16.60;99.90
23803;DHT22;12082;51.786;6.018;2022-07-22T06:22:24;16.60;99.90
23803;DHT22;12082;51.786;6.018;2022-07-22T06:24:50;16.50;99.90
23803;DHT22;12082;51.786;6.018;2022-07-22T06:27:16;16.50;99.90
23803;DHT22;12082;51.786;6.018;2022-07-22T06:29:41;16.50;99.90
23803;DHT22;12082;51.786;6.018;2022-07-22T06:32:08;16.60;99.90
23803;DHT22;12082;51.786;6.018;2022-07-22T06:34:33;16.60;99.90
23803;DHT22;12082;51.786;6.018;2022-07-22T06:36:59;16.60;99.90
23803;DHT22;12082;51.786;6.018;2022-07-22T06:39:25;16.60;99.90
23803;DHT22;12082;51.786;6.018;2022-07-22T06:41:51;16.50;99.90
23803;DHT22;12082;51.786;6.018;2022-07-22T06:44:16;16.60;99.90
23803;DHT22;12082;51.786;6.018;2022-07-22T06:46:42;16.60;99.90
23803;DHT22;12082;51.786;6.018;2022-07-22T06:49:07;16.70;99.90
23803;DHT22;12082;51.786;6.018;2022-07-22T06:51:33;16.80;99.90
23803;DHT22;12082;51.786;6.018;2022-07-22T06:54:00;17.00;99.90
23803;DHT22;12082;51.786;6.018;2022-07-22T06:56:25;17.10;99.90
23803;DHT22;12082;51.786;6.018;2022-07-22T06:58:51;17.20;99.90
23803;DHT22;12082;51.786;6.018;2022-07-22T07:01:17;17.30;99.90
23803;DHT22;12082;51.786;6.018;2022-07-22T07:03:42;17.50;99.90
23803;DHT22;12082;51.786;6.018;2022-07-22T07:06:09;17.60;99.90
23803;DHT22;12082;51.786;6.018;2022-07-22T07:08:37;17.80;99.90
23803;DHT22;12082;51.786;6.018;2022-07-22T07:11:03;17.80;99.90
23803;DHT22;12082;51.786;6.018;2022-07-22T07:13:29;17.90;99.90
23803;DHT22;12082;51.786;6.018;2022-07-22T07:15:55;17.90;99.90
23803;DHT22;12082;51.786;6.018;2022-07-22T07:18:20;18.00;99.90
23803;DHT22;12082;51.786;6.018;2022-07-22T07:20:46;18.10;99.90
23803;DHT22;12082;51.786;6.018;2022-07-22T07:23:11;18.10;99.90
23803;DHT22;12082;51.786;6.018;2022-07-22T07:25:37;18.10;99.90
23803;DHT22;12082;51.786;6.018;2022-07-22T07:28:03;18.00;99.90
23803;DHT22;12082;51.786;6.018;2022-07-22T07:30:28;18.00;99.90
23803;DHT22;12082;51.786;6.018;2022-07-22T07:32:54;18.20;99.90
23803;DHT22;12082;51.786;6.018;2022-07-22T07:35:20;18.20;99.90
23803;DHT22;12082;51.786;6.018;2022-07-22T07:37:46;18.00;99.90
23803;DHT22;12082;51.786;6.018;2022-07-22T07:40:12;18.20;99.90
23803;DHT22;12082;51.786;6.018;2022-07-22T07:42:37;18.40;99.90
23803;DHT22;12082;51.786;6.018;2022-07-22T07:45:03;18.10;99.90
23803;DHT22;12082;51.786;6.018;2022-07-22T07:47:29;18.10;99.90
23803;DHT22;12082;51.786;6.018;2022-07-22T07:49:55;18.20;99.90
23803;DHT22;12082;51.786;6.018;2022-07-22T07:52:22;18.20;99.90
23803;DHT22;12082;51.786;6.018;2022-07-22T07:54:48;18.20;99.90
23803;DHT22;12082;51.786;6.018;2022-07-22T07:57:14;18.10;99.90
23803;DHT22;12082;51.786;6.018;2022-07-22T07:59:40;18.10;99.90
23803;DHT22;12082;51.786;6.018;2022-07-22T08:02:07;18.20;99.90
23803;DHT22;12082;51.786;6.018;2022-07-22T08:04:32;18.10;99.90
23803;DHT22;12082;51.786;6.018;2022-07-22T08:06:58;18.30;99.90
23803;DHT22;12082;51.786;6.018;2022-07-22T08:09:24;18.40;99.90
23803;DHT22;12082;51.786;6.018;2022-07-22T08:11:50;18.70;99.90
23803;DHT22;12082;51.786;6.018;2022-07-22T08:14:16;18.70;99.90
23803;DHT22;12082;51.786;6.018;2022-07-22T08:16:41;18.80;99.90
23803;DHT22;12082;51.786;6.018;2022-07-22T08:19:07;19.00;99.90
23803;DHT22;12082;51.786;6.018;2022-07-22T08:21:33;19.00;99.90
23803;DHT22;12082;51.786;6.018;2022-07-22T08:23:59;19.10;99.90
23803;DHT22;12082;51.786;6.018;2022-07-22T08:26:24;18.90;99.90
23803;DHT22;12082;51.786;6.018;2022-07-22T08:28:50;18.90;99.90
23803;DHT22;12082;51.786;6.018;2022-07-22T08:31:16;18.90;99.90
23803;DHT22;12082;51.786;6.018;2022-07-22T08:33:41;19.00;99.90
23803;DHT22;12082;51.786;6.018;2022-07-22T08:36:07;19.10;99.90
23803;DHT22;12082;51.786;6.018;2022-07-22T08:38:33;19.30;99.90
23803;DHT22;12082;51.786;6.018;2022-07-22T08:41:01;19.60;99.90
23803;DHT22;12082;51.786;6.018;2022-07-22T08:43:27;19.60;99.90
23803;DHT22;12082;51.786;6.018;2022-07-22T08:45:53;19.90;99.90
23803;DHT22;12082;51.786;6.018;2022-07-22T08:48:19;20.10;99.90
23803;DHT22;12082;51.786;6.018;2022-07-22T08:50:44;19.90;99.90
23803;DHT22;12082;51.786;6.018;2022-07-22T08:53:13;19.90;99.90
23803;DHT22;12082;51.786;6.018;2022-07-22T08:55:43;19.70;99.90
23803;DHT22;12082;51.786;6.018;2022-07-22T08:58:10;19.50;99.90
23803;DHT22;12082;51.786;6.018;2022-07-22T09:00:35;19.40;99.90
23803;DHT22;12082;51.786;6.018;2022-07-22T09:03:24;19.40;99.90
23803;DHT22;12082;51.786;6.018;2022-07-22T09:05:53;19.50;99.90
23803;DHT22;12082;51.786;6.018;2022-07-22T09:08:20;19.30;99.90
23803;DHT22;12082;51.786;6.018;2022-07-22T09:10:46;19.30;99.90
23803;DHT22;12082;51.786;6.018;2022-07-22T09:13:14;19.40;99.90
23803;DHT22;12082;51.786;6.018;2022-07-22T09:15:49;19.30;99.90
23803;DHT22;12082;51.786;6.018;2022-07-22T09:18:15;19.30;99.90
23803;DHT22;12082;51.786;6.018;2022-07-22T09:20:41;19.40;99.90
23803;DHT22;12082;51.786;6.018;2022-07-22T09:23:15;19.40;99.90
23803;DHT22;12082;51.786;6.018;2022-07-22T09:25:42;19.40;99.90
23803;DHT22;12082;51.786;6.018;2022-07-22T09:28:10;19.40;99.90
23803;DHT22;12082;51.786;6.018;2022-07-22T09:30:38;19.40;99.90
23803;DHT22;12082;51.786;6.018;2022-07-22T09:33:06;19.60;99.90
23803;DHT22;12082;51.786;6.018;2022-07-22T09:35:31;19.70;99.90
23803;DHT22;12082;51.786;6.018;2022-07-22T09:37:59;19.80;99.90
23803;DHT22;12082;51.786;6.018;2022-07-22T09:40:27;19.80;99.90
23803;DHT22;12082;51.786;6.018;2022-07-22T09:42:55;19.90;99.90
23803;DHT22;12082;51.786;6.018;2022-07-22T09:45:24;20.00;99.90
23803;DHT22;12082;51.786;6.018;2022-07-22T09:47:50;20.10;99.90
23803;DHT22;12082;51.786;6.018;2022-07-22T09:50:24;20.20;99.90
23803;DHT22;12082;51.786;6.018;2022-07-22T09:52:55;20.20;99.90
23803;DHT22;12082;51.786;6.018;2022-07-22T09:55:24;20.50;99.90
23803;DHT22;12082;51.786;6.018;2022-07-22T09:57:51;20.70;99.90
23803;DHT22;12082;51.786;6.018;2022-07-22T10:00:27;21.40;99.90
23803;DHT22;12082;51.786;6.018;2022-07-22T10:02:57;21.80;99.90
23803;DHT22;12082;51.786;6.018;2022-07-22T10:05:29;22.20;99.90
23803;DHT22;12082;51.786;6.018;2022-07-22T10:07:55;22.00;99.90
23803;DHT22;12082;51.786;6.018;2022-07-22T10:10:26;21.70;99.90
23803;DHT22;12082;51.786;6.018;2022-07-22T10:12:55;21.50;99.90
23803;DHT22;12082;51.786;6.018;2022-07-22T10:15:22;21.50;99.90
23803;DHT22;12082;51.786;6.018;2022-07-22T10:17:51;21.60;99.90
23803;DHT22;12082;51.786;6.018;2022-07-22T10:20:18;21.50;99.90
23803;DHT22;12082;51.786;6.018;2022-07-22T10:22:47;21.30;99.90
23803;DHT22;12082;51.786;6.018;2022-07-22T10:25:15;21.10;99.90
23803;DHT22;12082;51.786;6.018;2022-07-22T10:28:04;21.00;99.90
23803;DHT22;12082;51.786;6.018;2022-07-22T10:30:35;21.20;99.90
23803;DHT22;12082;51.786;6.018;2022-07-22T10:33:13;21.00;99.90
23803;DHT22;12082;51.786;6.018;2022-07-22T10:36:01;20.80;99.90
23803;DHT22;12082;51.786;6.018;2022-07-22T10:38:29;20.90;99.90
23803;DHT22;12082;51.786;6.018;2022-07-22T10:40:56;21.10;99.90
23803;DHT22;12082;51.786;6.018;2022-07-22T10:43:45;21.10;99.90
23803;DHT22;12082;51.786;6.018;2022-07-22T10:46:11;21.20;99.90
23803;DHT22;12082;51.786;6.018;2022-07-22T10:51:18;21.50;99.90
23803;DHT22;12082;51.786;6.018;2022-07-22T10:54:00;21.40;99.90
23803;DHT22;12082;51.786;6.018;2022-07-22T10:56:31;21.10;99.90
23803;DHT22;12082;51.786;6.018;2022-07-22T10:59:11;21.00;99.90
23803;DHT22;12082;51.786;6.018;2022-07-22T11:01:43;20.80;99.90
23803;DHT22;12082;51.786;6.018;2022-07-22T11:06:38;20.60;99.90
23803;DHT22;12082;51.786;6.018;2022-07-22T11:09:07;20.60;99.90
23803;DHT22;12082;51.786;6.018;2022-07-22T11:11:44;20.60;99.90
23803;DHT22;12082;51.786;6.018;2022-07-22T11:16:56;20.90;99.90
23803;DHT22;12082;51.786;6.018;2022-07-22T11:19:27;21.00;99.90
23803;DHT22;12082;51.786;6.018;2022-07-22T11:21:57;21.20;99.90
23803;DHT22;12082;51.786;6.018;2022-07-22T11:24:24;21.40;99.90
23803;DHT22;12082;51.786;6.018;2022-07-22T11:26:52;21.50;99.90
23803;DHT22;12082;51.786;6.018;2022-07-22T11:29:26;21.50;99.90
23803;DHT22;12082;51.786;6.018;2022-07-22T11:31:52;21.50;99.90
23803;DHT22;12082;51.786;6.018;2022-07-22T11:34:18;21.60;99.90
23803;DHT22;12082;51.786;6.018;2022-07-22T11:36:46;21.80;99.90
23803;DHT22;12082;51.786;6.018;2022-07-22T11:39:14;21.70;99.90
23803;DHT22;12082;51.786;6.018;2022-07-22T11:41:40;21.70;99.90
23803;DHT22;12082;51.786;6.018;2022-07-22T11:44:06;21.70;99.90
23803;DHT22;12082;51.786;6.018;2022-07-22T11:46:38;21.50;99.90
23803;DHT22;12082;51.786;6.018;2022-07-22T11:49:04;21.50;99.90
23803;DHT22;12082;51.786;6.018;2022-07-22T11:51:31;21.40;99.90
23803;DHT22;12082;51.786;6.018;2022-07-22T11:53:57;21.70;99.90
23803;DHT22;12082;51.786;6.018;2022-07-22T11:56:24;21.90;99.90
23803;DHT22;12082;51.786;6.018;2022-07-22T11:58:50;22.10;99.90
23803;DHT22;12082;51.786;6.018;2022-07-22T12:01:19;22.20;99.90
23803;DHT22;12082;51.786;6.018;2022-07-22T12:03:53;22.40;99.90
23803;DHT22;12082;51.786;6.018;2022-07-22T12:06:21;22.40;99.90
23803;DHT22;12082;51.786;6.018;2022-07-22T12:08:53;22.10;99.90
23803;DHT22;12082;51.786;6.018;2022-07-22T12:11:21;21.90;99.90
23803;DHT22;12082;51.786;6.018;2022-07-22T12:13:48;21.90;99.90
23803;DHT22;12082;51.786;6.018;2022-07-22T12:16:29;21.80;99.90
23803;DHT22;12082;51.786;6.018;2022-07-22T12:19:08;21.40;99.90
23803;DHT22;12082;51.786;6.018;2022-07-22T12:21:58;21.60;99.90
23803;DHT22;12082;51.786;6.018;2022-07-22T12:27:00;21.80;99.90
23803;DHT22;12082;51.786;6.018;2022-07-22T12:32:10;22.00;99.90
23803;DHT22;12082;51.786;6.018;2022-07-22T12:34:46;21.90;99.90
23803;DHT22;12082;51.786;6.018;2022-07-22T12:43:16;22.10;99.90
23803;DHT22;12082;51.786;6.018;2022-07-22T12:45:17;22.00;99.90
23803;DHT22;12082;51.786;6.018;2022-07-22T12:47:50;21.90;99.90
23803;DHT22;12082;51.786;6.018;2022-07-22T12:50:25;22.00;99.90
23803;DHT22;12082;51.786;6.018;2022-07-22T12:53:00;22.10;99.90
23803;DHT22;12082;51.786;6.018;2022-07-22T12:55:28;21.90;99.90
23803;DHT22;12082;51.786;6.018;2022-07-22T12:57:55;21.90;99.90
23803;DHT22;12082;51.786;6.018;2022-07-22T13:00:22;22.00;99.90
23803;DHT22;12082;51.786;6.018;2022-07-22T13:02:49;22.20;99.90
23803;DHT22;12082;51.786;6.018;2022-07-22T13:05:15;22.50;99.90
23803;DHT22;12082;51.786;6.018;2022-07-22T13:07:41;22.60;99.90
23803;DHT22;12082;51.786;6.018;2022-07-22T13:10:08;22.80;99.90
23803;DHT22;12082;51.786;6.018;2022-07-22T13:12:34;22.80;99.90
23803;DHT22;12082;51.786;6.018;2022-07-22T13:14:59;22.80;99.60
23803;DHT22;12082;51.786;6.018;2022-07-22T13:17:25;22.60;99.90
23803;DHT22;12082;51.786;6.018;2022-07-22T13:19:50;22.60;99.90
23803;DHT22;12082;51.786;6.018;2022-07-22T13:22:16;22.70;99.90
23803;DHT22;12082;51.786;6.018;2022-07-22T13:24:41;22.40;99.90
23803;DHT22;12082;51.786;6.018;2022-07-22T13:27:07;22.30;99.90
23803;DHT22;12082;51.786;6.018;2022-07-22T13:29:32;22.30;99.90
23803;DHT22;12082;51.786;6.018;2022-07-22T13:31:58;22.50;99.90
23803;DHT22;12082;51.786;6.018;2022-07-22T13:34:24;22.30;99.90
23803;DHT22;12082;51.786;6.018;2022-07-22T13:36:49;22.30;99.90
23803;DHT22;12082;51.786;6.018;2022-07-22T13:39:15;22.40;99.90
23803;DHT22;12082;51.786;6.018;2022-07-22T13:41:41;22.70;99.90
23803;DHT22;12082;51.786;6.018;2022-07-22T13:44:07;22.60;99.90
23803;DHT22;12082;51.786;6.018;2022-07-22T13:46:36;22.60;99.90
23803;DHT22;12082;51.786;6.018;2022-07-22T13:49:02;22.40;99.90
23803;DHT22;12082;51.786;6.018;2022-07-22T13:51:28;22.40;99.90
23803;DHT22;12082;51.786;6.018;2022-07-22T13:53:53;22.50;99.90
23803;DHT22;12082;51.786;6.018;2022-07-22T13:56:19;22.70;99.90
23803;DHT22;12082;51.786;6.018;2022-07-22T13:58:45;22.70;99.40
23803;DHT22;12082;51.786;6.018;2022-07-22T14:01:10;22.70;99.90
23803;DHT22;12082;51.786;6.018;2022-07-22T14:03:37;23.00;99.90
23803;DHT22;12082;51.786;6.018;2022-07-22T14:06:04;23.10;98.20
23803;DHT22;12082;51.786;6.018;2022-07-22T14:08:30;22.50;98.70
23803;DHT22;12082;51.786;6.018;2022-07-22T14:10:56;23.30;99.90
23803;DHT22;12082;51.786;6.018;2022-07-22T14:13:21;22.40;99.90
23803;DHT22;12082;51.786;6.018;2022-07-22T14:15:47;22.40;99.90
23803;DHT22;12082;51.786;6.018;2022-07-22T14:18:13;22.30;99.00
23803;DHT22;12082;51.786;6.018;2022-07-22T14:20:38;22.30;99.70
23803;DHT22;12082;51.786;6.018;2022-07-22T14:23:05;22.50;99.90
23803;DHT22;12082;51.786;6.018;2022-07-22T14:25:32;22.80;99.90
23803;DHT22;12082;51.786;6.018;2022-07-22T14:27:57;23.00;98.30
23803;DHT22;12082;51.786;6.018;2022-07-22T14:30:23;23.10;97.20
23803;DHT22;12082;51.786;6.018;2022-07-22T14:32:49;23.30;98.50
23803;DHT22;12082;51.786;6.018;2022-07-22T14:35:14;23.30;97.70
23803;DHT22;12082;51.786;6.018;2022-07-22T14:37:40;23.30;99.80
23803;DHT22;12082;51.786;6.018;2022-07-22T14:40:06;23.30;98.20
23803;DHT22;12082;51.786;6.018;2022-07-22T14:42:32;23.30;97.90
23803;DHT22;12082;51.786;6.018;2022-07-22T14:44:57;23.10;98.20
23803;DHT22;12082;51.786;6.018;2022-07-22T14:47:23;22.90;99.00
23803;DHT22;12082;51.786;6.018;2022-07-22T14:49:48;22.80;99.90
23803;DHT22;12082;51.786;6.018;2022-07-22T14:52:14;22.70;99.90
23803;DHT22;12082;51.786;6.018;2022-07-22T14:54:40;22.60;99.90
23803;DHT22;12082;51.786;6.018;2022-07-22T14:57:05;22.60;99.90
23803;DHT22;12082;51.786;6.018;2022-07-22T14:59:31;22.40;99.90
23803;DHT22;12082;51.786;6.018;2022-07-22T15:01:56;22.20;99.90
23803;DHT22;12082;51.786;6.018;2022-07-22T15:04:22;22.00;99.90
23803;DHT22;12082;51.786;6.018;2022-07-22T15:06:47;21.90;99.70
23803;DHT22;12082;51.786;6.018;2022-07-22T15:09:13;22.00;99.50
23803;DHT22;12082;51.786;6.018;2022-07-22T15:11:38;22.10;99.90
23803;DHT22;12082;51.786;6.018;2022-07-22T15:14:04;22.40;99.90
23803;DHT22;12082;51.786;6.018;2022-07-22T15:16:30;22.00;99.60
23803;DHT22;12082;51.786;6.018;2022-07-22T15:18:55;22.10;99.90
23803;DHT22;12082;51.786;6.018;2022-07-22T15:21:21;22.30;99.60
23803;DHT22;12082;51.786;6.018;2022-07-22T15:23:47;22.80;99.50
23803;DHT22;12082;51.786;6.018;2022-07-22T15:26:14;23.10;98.50
23803;DHT22;12082;51.786;6.018;2022-07-22T15:28:39;23.10;98.30
23803;DHT22;12082;51.786;6.018;2022-07-22T15:31:05;23.10;98.40
23803;DHT22;12082;51.786;6.018;2022-07-22T15:33:32;23.20;98.60
23803;DHT22;12082;51.786;6.018;2022-07-22T15:35:58;23.10;98.30
23803;DHT22;12082;51.786;6.018;2022-07-22T15:38:24;22.90;97.30
23803;DHT22;12082;51.786;6.018;2022-07-22T15:40:49;22.90;98.60
23803;DHT22;12082;51.786;6.018;2022-07-22T15:43:15;22.80;98.40
23803;DHT22;12082;51.786;6.018;2022-07-22T15:45:41;22.90;97.90